sensor_id;sensor_type;location;lat;lon;timestamp;pressure;altitude;pressure_sealevel;temperature;humidity
4745;BME280;2386;42.138;24.746;2023-04-29T00:01:59;99779.69;;;11.64;75.65
4745;BME280;2386;42.138;24.746;2023-04-29T00:04:25;99788.81;;;11.69;76.05
4745;BME280;2386;42.138;24.746;2023-04-29T00:06:50;99796.09;;;11.57;76.62
4745;BME280;2386;42.138;24.746;2023-04-29T00:09:16;99797.53;;;11.71;76.91
4745;BME280;2386;42.138;24.746;2023-04-29T00:11:41;99792.44;;;11.63;77.84
4745;BME280;2386;42.138;24.746;2023-04-29T00:14:06;99792.69;;;11.73;77.31
4745;BME280;2386;42.138;24.746;2023-04-29T00:16:32;99792.69;;;11.73;77.80
4745;BME280;2386;42.138;24.746;2023-04-29T00:18:57;99782.81;;;11.79;76.98
4745;BME280;2386;42.138;24.746;2023-04-29T00:21:24;99792.13;;;11.71;77.35
4745;BME280;2386;42.138;24.746;2023-04-29T00:23:51;99790.00;;;11.73;76.91
4745;BME280;2386;42.138;24.746;2023-04-29T00:26:17;99782.03;;;11.48;77.61
4745;BME280;2386;42.138;24.746;2023-04-29T00:28:42;99784.75;;;11.60;78.44
4745;BME280;2386;42.138;24.746;2023-04-29T00:31:08;99778.47;;;11.48;78.77
4745;BME280;2386;42.138;24.746;2023-04-29T00:33:33;99780.75;;;11.21;81.25
4745;BME280;2386;42.138;24.746;2023-04-29T00:35:58;99791.88;;;11.31;80.56
4745;BME280;2386;42.138;24.746;2023-04-29T00:38:24;99791.97;;;11.25;80.81
4745;BME280;2386;42.138;24.746;2023-04-29T00:40:50;99788.34;;;11.31;80.93
4745;BME280;2386;42.138;24.746;2023-04-29T00:43:15;99789.72;;;11.22;82.33
4745;BME280;2386;42.138;24.746;2023-04-29T00:45:41;99795.84;;;11.17;82.17
4745;BME280;2386;42.138;24.746;2023-04-29T00:48:06;99799.75;;;11.21;81.52
4745;BME280;2386;42.138;24.746;2023-04-29T00:50:32;99786.41;;;11.08;82.70
4745;BME280;2386;42.138;24.746;2023-04-29T00:52:57;99800.59;;;11.22;82.97
4745;BME280;2386;42.138;24.746;2023-04-29T00:55:24;99801.78;;;11.26;82.67
4745;BME280;2386;42.138;24.746;2023-04-29T00:57:50;99789.72;;;11.22;82.87
4745;BME280;2386;42.138;24.746;2023-04-29T01:00:17;99786.50;;;11.01;83.93
4745;BME280;2386;42.138;24.746;2023-04-29T01:02:44;99794.38;;;10.73;84.93
4745;BME280;2386;42.138;24.746;2023-04-29T01:05:10;99792.72;;;10.72;86.51
4745;BME280;2386;42.138;24.746;2023-04-29T01:07:44;99790.88;;;10.84;86.66
4745;BME280;2386;42.138;24.746;2023-04-29T01:10:25;99797.59;;;10.81;85.28
4745;BME280;2386;42.138;24.746;2023-04-29T01:18:15;99797.06;;;10.91;84.79
4745;BME280;2386;42.138;24.746;2023-04-29T01:20:43;99791.41;;;10.93;84.36
4745;BME280;2386;42.138;24.746;2023-04-29T01:23:09;99784.56;;;10.90;85.38
4745;BME280;2386;42.138;24.746;2023-04-29T01:25:35;99780.19;;;10.89;86.16
4745;BME280;2386;42.138;24.746;2023-04-29T01:28:15;99785.56;;;11.07;84.68
4745;BME280;2386;42.138;24.746;2023-04-29T01:31:07;99781.22;;;10.88;84.35
4745;BME280;2386;42.138;24.746;2023-04-29T01:42:05;99776.72;;;10.64;84.47
4745;BME280;2386;42.138;24.746;2023-04-29T01:44:34;99771.91;;;10.47;84.80
4745;BME280;2386;42.138;24.746;2023-04-29T01:47:01;99769.06;;;10.24;86.62
4745;BME280;2386;42.138;24.746;2023-04-29T01:49:27;99768.44;;;10.40;86.29
4745;BME280;2386;42.138;24.746;2023-04-29T01:51:53;99774.25;;;10.44;86.64
4745;BME280;2386;42.138;24.746;2023-04-29T01:54:19;99769.28;;;10.41;85.64
4745;BME280;2386;42.138;24.746;2023-04-29T01:56:46;99757.94;;;10.32;87.10
4745;BME280;2386;42.138;24.746;2023-04-29T01:59:11;99763.16;;;10.09;89.98
4745;BME280;2386;42.138;24.746;2023-04-29T02:01:37;99770.38;;;10.15;91.35
4745;BME280;2386;42.138;24.746;2023-04-29T02:04:02;99768.34;;;10.10;90.18
4745;BME280;2386;42.138;24.746;2023-04-29T02:06:28;99762.63;;;10.00;91.21
4745;BME280;2386;42.138;24.746;2023-04-29T02:08:56;99769.91;;;10.00;92.00
4745;BME280;2386;42.138;24.746;2023-04-29T02:11:22;99770.72;;;10.25;89.94
4745;BME280;2386;42.138;24.746;2023-04-29T02:13:47;99760.88;;;10.06;91.03
4745;BME280;2386;42.138;24.746;2023-04-29T02:16:14;99763.44;;;10.01;92.38
4745;BME280;2386;42.138;24.746;2023-04-29T02:18:39;99769.56;;;10.14;89.92
4745;BME280;2386;42.138;24.746;2023-04-29T02:21:05;99767.88;;;10.20;88.49
4745;BME280;2386;42.138;24.746;2023-04-29T02:23:31;99759.09;;;10.18;88.44
4745;BME280;2386;42.138;24.746;2023-04-29T02:25:56;99763.44;;;10.01;89.10
4745;BME280;2386;42.138;24.746;2023-04-29T02:28:21;99768.56;;;10.09;89.19
4745;BME280;2386;42.138;24.746;2023-04-29T02:30:50;99766.00;;;9.96;89.75
4745;BME280;2386;42.138;24.746;2023-04-29T02:33:16;99760.91;;;9.81;90.74
4745;BME280;2386;42.138;24.746;2023-04-29T02:35:42;99764.06;;;9.78;92.32
4745;BME280;2386;42.138;24.746;2023-04-29T02:38:08;99757.88;;;9.71;90.51
4745;BME280;2386;42.138;24.746;2023-04-29T02:40:33;99754.56;;;9.69;90.92
4745;BME280;2386;42.138;24.746;2023-04-29T02:42:58;99752.25;;;9.72;90.83
4745;BME280;2386;42.138;24.746;2023-04-29T02:45:25;99757.50;;;9.67;91.08
4745;BME280;2386;42.138;24.746;2023-04-29T02:47:51;99767.97;;;9.64;91.72
4745;BME280;2386;42.138;24.746;2023-04-29T02:50:16;99763.59;;;9.63;91.84
4745;BME280;2386;42.138;24.746;2023-04-29T02:52:41;99755.34;;;9.76;90.56
4745;BME280;2386;42.138;24.746;2023-04-29T02:55:07;99762.78;;;9.80;90.18
4745;BME280;2386;42.138;24.746;2023-04-29T02:57:33;99768.09;;;9.94;89.56
4745;BME280;2386;42.138;24.746;2023-04-29T02:59:59;99771.53;;;9.82;90.72
4745;BME280;2386;42.138;24.746;2023-04-29T03:02:24;99774.41;;;9.87;90.38
4745;BME280;2386;42.138;24.746;2023-04-29T03:04:50;99779.47;;;9.59;91.19
4745;BME280;2386;42.138;24.746;2023-04-29T03:07:16;99766.38;;;9.56;92.54
4745;BME280;2386;42.138;24.746;2023-04-29T03:09:42;99763.94;;;9.48;93.84
4745;BME280;2386;42.138;24.746;2023-04-29T03:12:07;99767.81;;;9.59;93.58
4745;BME280;2386;42.138;24.746;2023-04-29T03:14:33;99777.84;;;9.51;95.01
4745;BME280;2386;42.138;24.746;2023-04-29T03:16:58;99778.50;;;9.47;94.08
4745;BME280;2386;42.138;24.746;2023-04-29T03:19:24;99777.63;;;9.53;92.48
4745;BME280;2386;42.138;24.746;2023-04-29T03:21:49;99776.97;;;9.58;92.50
4745;BME280;2386;42.138;24.746;2023-04-29T03:24:14;99776.84;;;9.71;90.98
4745;BME280;2386;42.138;24.746;2023-04-29T03:26:40;99782.47;;;9.69;91.67
4745;BME280;2386;42.138;24.746;2023-04-29T03:29:07;99789.50;;;9.77;90.54
4745;BME280;2386;42.138;24.746;2023-04-29T03:31:32;99789.50;;;9.52;93.23
4745;BME280;2386;42.138;24.746;2023-04-29T03:33:58;99779.59;;;9.39;95.53
4745;BME280;2386;42.138;24.746;2023-04-29T03:36:23;99782.34;;;9.33;95.92
4745;BME280;2386;42.138;24.746;2023-04-29T03:38:49;99794.41;;;9.37;96.19
4745;BME280;2386;42.138;24.746;2023-04-29T03:41:14;99791.41;;;9.51;94.22
4745;BME280;2386;42.138;24.746;2023-04-29T03:43:40;99793.06;;;9.52;94.34
4745;BME280;2386;42.138;24.746;2023-04-29T03:46:05;99790.06;;;9.61;93.34
4745;BME280;2386;42.138;24.746;2023-04-29T03:48:30;99792.22;;;9.52;93.70
4745;BME280;2386;42.138;24.746;2023-04-29T03:50:57;99805.72;;;9.59;92.83
4745;BME280;2386;42.138;24.746;2023-04-29T03:53:22;99802.53;;;9.37;91.26
4745;BME280;2386;42.138;24.746;2023-04-29T03:55:48;99798.81;;;9.63;90.30
4745;BME280;2386;42.138;24.746;2023-04-29T03:58:14;99793.88;;;9.53;90.21
4745;BME280;2386;42.138;24.746;2023-04-29T04:00:39;99814.09;;;9.75;90.04
4745;BME280;2386;42.138;24.746;2023-04-29T04:03:04;99808.50;;;9.70;89.76
4745;BME280;2386;42.138;24.746;2023-04-29T04:05:30;99810.47;;;9.63;90.17
4745;BME280;2386;42.138;24.746;2023-04-29T04:07:55;99811.75;;;9.61;89.04
4745;BME280;2386;42.138;24.746;2023-04-29T04:10:21;99810.75;;;9.55;90.08
4745;BME280;2386;42.138;24.746;2023-04-29T04:12:46;99819.66;;;9.62;89.90
4745;BME280;2386;42.138;24.746;2023-04-29T04:15:12;99809.00;;;9.85;88.38
4745;BME280;2386;42.138;24.746;2023-04-29T04:17:37;99816.88;;;9.94;88.13
4745;BME280;2386;42.138;24.746;2023-04-29T04:20:03;99812.72;;;9.91;87.17
4745;BME280;2386;42.138;24.746;2023-04-29T04:22:28;99817.84;;;9.74;87.75
4745;BME280;2386;42.138;24.746;2023-04-29T04:24:54;99815.38;;;9.73;87.36
4745;BME280;2386;42.138;24.746;2023-04-29T04:27:20;99816.50;;;9.65;87.16
4745;BME280;2386;42.138;24.746;2023-04-29T04:29:45;99820.00;;;9.66;87.90
4745;BME280;2386;42.138;24.746;2023-04-29T04:32:10;99816.97;;;9.80;88.26
4745;BME280;2386;42.138;24.746;2023-04-29T04:34:36;99810.34;;;9.76;85.42
4745;BME280;2386;42.138;24.746;2023-04-29T04:37:03;99813.81;;;9.83;86.27
4745;BME280;2386;42.138;24.746;2023-04-29T04:39:29;99821.34;;;10.06;85.02
4745;BME280;2386;42.138;24.746;2023-04-29T04:41:54;99813.28;;;10.00;85.34
4745;BME280;2386;42.138;24.746;2023-04-29T04:44:20;99810.44;;;10.13;86.21
4745;BME280;2386;42.138;24.746;2023-04-29T04:46:45;99821.88;;;10.15;86.09
4745;BME280;2386;42.138;24.746;2023-04-29T04:49:11;99812.44;;;10.24;85.97
4745;BME280;2386;42.138;24.746;2023-04-29T04:51:36;99823.91;;;10.44;84.07
4745;BME280;2386;42.138;24.746;2023-04-29T04:54:01;99844.53;;;10.27;81.07
4745;BME280;2386;42.138;24.746;2023-04-29T04:56:27;99832.94;;;10.20;82.27
4745;BME280;2386;42.138;24.746;2023-04-29T04:58:52;99830.13;;;10.02;84.17
4745;BME280;2386;42.138;24.746;2023-04-29T05:01:18;99827.81;;;9.80;86.77
4745;BME280;2386;42.138;24.746;2023-04-29T05:03:43;99843.19;;;9.86;88.00
4745;BME280;2386;42.138;24.746;2023-04-29T05:06:08;99841.69;;;9.91;86.19
4745;BME280;2386;42.138;24.746;2023-04-29T05:08:34;99839.75;;;9.98;86.43
4745;BME280;2386;42.138;24.746;2023-04-29T05:10:59;99842.19;;;10.06;85.05
4745;BME280;2386;42.138;24.746;2023-04-29T05:13:25;99846.34;;;10.08;84.95
4745;BME280;2386;42.138;24.746;2023-04-29T05:15:50;99840.91;;;10.08;85.72
4745;BME280;2386;42.138;24.746;2023-04-29T05:18:16;99826.81;;;10.00;85.47
4745;BME280;2386;42.138;24.746;2023-04-29T05:20:41;99840.78;;;10.28;84.54
4745;BME280;2386;42.138;24.746;2023-04-29T05:23:07;99836.50;;;10.39;84.21
4745;BME280;2386;42.138;24.746;2023-04-29T05:25:33;99829.09;;;10.28;84.00
4745;BME280;2386;42.138;24.746;2023-04-29T05:27:58;99828.28;;;10.27;84.09
4745;BME280;2386;42.138;24.746;2023-04-29T05:30:24;99816.91;;;10.37;85.74
4745;BME280;2386;42.138;24.746;2023-04-29T05:32:49;99822.31;;;10.55;84.59
4745;BME280;2386;42.138;24.746;2023-04-29T05:35:14;99817.72;;;10.56;83.14
4745;BME280;2386;42.138;24.746;2023-04-29T05:37:40;99829.03;;;10.52;81.72
4745;BME280;2386;42.138;24.746;2023-04-29T05:40:06;99816.44;;;10.58;81.03
4745;BME280;2386;42.138;24.746;2023-04-29T05:42:32;99819.53;;;10.62;80.52
4745;BME280;2386;42.138;24.746;2023-04-29T05:44:57;99805.13;;;10.43;79.94
4745;BME280;2386;42.138;24.746;2023-04-29T05:47:22;99802.31;;;10.38;80.41
4745;BME280;2386;42.138;24.746;2023-04-29T05:49:48;99797.69;;;10.57;79.81
4745;BME280;2386;42.138;24.746;2023-04-29T05:52:14;99809.44;;;10.69;78.46
4745;BME280;2386;42.138;24.746;2023-04-29T05:54:39;99792.72;;;10.72;78.97
4745;BME280;2386;42.138;24.746;2023-04-29T05:57:06;99802.19;;;10.99;76.83
4745;BME280;2386;42.138;24.746;2023-04-29T05:59:32;99802.31;;;11.04;76.44
4745;BME280;2386;42.138;24.746;2023-04-29T06:01:58;99797.41;;;11.25;74.21
4745;BME280;2386;42.138;24.746;2023-04-29T06:04:24;99786.88;;;11.16;72.63
4745;BME280;2386;42.138;24.746;2023-04-29T06:06:54;99790.88;;;11.44;73.26
4745;BME280;2386;42.138;24.746;2023-04-29T06:09:21;99785.22;;;11.57;73.77
4745;BME280;2386;42.138;24.746;2023-04-29T06:11:50;99791.34;;;11.82;71.95
4745;BME280;2386;42.138;24.746;2023-04-29T06:14:15;99773.97;;;11.83;71.27
4745;BME280;2386;42.138;24.746;2023-04-29T06:16:40;99772.66;;;11.98;70.50
4745;BME280;2386;42.138;24.746;2023-04-29T06:19:06;99775.84;;;11.95;70.47
4745;BME280;2386;42.138;24.746;2023-04-29T06:21:31;99770.88;;;12.15;69.04
4745;BME280;2386;42.138;24.746;2023-04-29T06:23:57;99773.00;;;12.13;68.92
4745;BME280;2386;42.138;24.746;2023-04-29T06:26:23;99758.94;;;12.16;67.16
4745;BME280;2386;42.138;24.746;2023-04-29T06:28:48;99771.94;;;12.26;66.72
4745;BME280;2386;42.138;24.746;2023-04-29T06:31:14;99774.41;;;12.27;66.25
4745;BME280;2386;42.138;24.746;2023-04-29T06:33:40;99775.59;;;12.31;66.32
4745;BME280;2386;42.138;24.746;2023-04-29T06:36:05;99771.22;;;12.30;66.67
4745;BME280;2386;42.138;24.746;2023-04-29T06:38:30;99774.63;;;12.49;67.17
4745;BME280;2386;42.138;24.746;2023-04-29T06:40:56;99773.56;;;12.50;67.30
4745;BME280;2386;42.138;24.746;2023-04-29T06:43:28;99763.03;;;12.54;66.92
4745;BME280;2386;42.138;24.746;2023-04-29T06:45:53;99757.28;;;12.67;67.27
4745;BME280;2386;42.138;24.746;2023-04-29T06:48:19;99757.97;;;12.74;65.52
4745;BME280;2386;42.138;24.746;2023-04-29T06:50:54;99770.72;;;12.85;63.80
4745;BME280;2386;42.138;24.746;2023-04-29T06:53:21;99761.09;;;12.94;63.46
4745;BME280;2386;42.138;24.746;2023-04-29T06:55:46;99747.81;;;12.98;62.54
4745;BME280;2386;42.138;24.746;2023-04-29T06:58:13;99750.91;;;13.01;61.61
4745;BME280;2386;42.138;24.746;2023-04-29T07:00:39;99741.75;;;13.07;61.59
4745;BME280;2386;42.138;24.746;2023-04-29T07:03:04;99740.66;;;13.20;62.40
4745;BME280;2386;42.138;24.746;2023-04-29T07:05:29;99738.59;;;13.27;61.95
4745;BME280;2386;42.138;24.746;2023-04-29T07:07:55;99737.63;;;13.50;62.08
4745;BME280;2386;42.138;24.746;2023-04-29T07:10:20;99738.03;;;13.59;59.90
4745;BME280;2386;42.138;24.746;2023-04-29T07:12:46;99738.69;;;13.82;61.15
4745;BME280;2386;42.138;24.746;2023-04-29T07:15:11;99733.03;;;14.06;59.43
4745;BME280;2386;42.138;24.746;2023-04-29T07:17:37;99734.69;;;14.07;57.58
4745;BME280;2386;42.138;24.746;2023-04-29T07:20:03;99737.75;;;14.10;57.01
4745;BME280;2386;42.138;24.746;2023-04-29T07:22:29;99734.13;;;14.27;57.20
4745;BME280;2386;42.138;24.746;2023-04-29T07:24:55;99738.56;;;14.50;57.32
4745;BME280;2386;42.138;24.746;2023-04-29T07:27:21;99736.03;;;14.65;56.01
4745;BME280;2386;42.138;24.746;2023-04-29T07:29:47;99740.47;;;14.71;55.44
4745;BME280;2386;42.138;24.746;2023-04-29T07:32:12;99735.84;;;14.71;55.06
4745;BME280;2386;42.138;24.746;2023-04-29T07:34:38;99727.75;;;14.82;54.44
4745;BME280;2386;42.138;24.746;2023-04-29T07:37:04;99742.00;;;14.89;54.78
4745;BME280;2386;42.138;24.746;2023-04-29T07:39:29;99728.63;;;14.87;54.25
4745;BME280;2386;42.138;24.746;2023-04-29T07:41:55;99728.59;;;14.82;53.67
4745;BME280;2386;42.138;24.746;2023-04-29T07:44:21;99735.16;;;14.86;54.17
4745;BME280;2386;42.138;24.746;2023-04-29T07:46:47;99735.16;;;14.86;53.70
4745;BME280;2386;42.138;24.746;2023-04-29T07:49:12;99739.09;;;14.95;53.63
4745;BME280;2386;42.138;24.746;2023-04-29T07:51:41;99739.19;;;15.05;52.87
4745;BME280;2386;42.138;24.746;2023-04-29T07:54:06;99729.34;;;15.04;53.53
4745;BME280;2386;42.138;24.746;2023-04-29T07:56:32;99722.88;;;15.10;52.65
4745;BME280;2386;42.138;24.746;2023-04-29T07:58:59;99720.59;;;15.02;52.42
4745;BME280;2386;42.138;24.746;2023-04-29T08:01:24;99705.03;;;15.03;52.00
4745;BME280;2386;42.138;24.746;2023-04-29T08:03:49;99715.75;;;15.09;51.78
4745;BME280;2386;42.138;24.746;2023-04-29T08:06:15;99716.00;;;15.08;51.34
4745;BME280;2386;42.138;24.746;2023-04-29T08:08:42;99710.78;;;15.06;51.91
4745;BME280;2386;42.138;24.746;2023-04-29T08:11:14;99710.91;;;15.17;51.37
4745;BME280;2386;42.138;24.746;2023-04-29T08:13:40;99705.44;;;15.17;51.24
4745;BME280;2386;42.138;24.746;2023-04-29T08:16:05;99711.72;;;15.17;50.30
4745;BME280;2386;42.138;24.746;2023-04-29T08:18:30;99706.25;;;15.17;50.49
4745;BME280;2386;42.138;24.746;2023-04-29T08:20:56;99692.19;;;15.30;50.23
4745;BME280;2386;42.138;24.746;2023-04-29T08:23:21;99693.88;;;15.36;49.98
4745;BME280;2386;42.138;24.746;2023-04-29T08:25:47;99689.56;;;15.45;49.90
4745;BME280;2386;42.138;24.746;2023-04-29T08:28:15;99694.91;;;15.57;49.28
4745;BME280;2386;42.138;24.746;2023-04-29T08:30:41;99687.88;;;15.39;49.00
4745;BME280;2386;42.138;24.746;2023-04-29T08:33:07;99681.59;;;15.39;48.99
4745;BME280;2386;42.138;24.746;2023-04-29T08:35:33;99673.97;;;15.41;49.02
4745;BME280;2386;42.138;24.746;2023-04-29T08:38:02;99688.59;;;15.57;49.15
4745;BME280;2386;42.138;24.746;2023-04-29T08:40:29;99685.38;;;15.70;48.56
4745;BME280;2386;42.138;24.746;2023-04-29T08:42:56;99670.66;;;15.76;48.97
4745;BME280;2386;42.138;24.746;2023-04-29T08:45:23;99674.91;;;15.99;48.80
4745;BME280;2386;42.138;24.746;2023-04-29T08:47:49;99673.28;;;16.03;47.06
4745;BME280;2386;42.138;24.746;2023-04-29T08:50:15;99664.88;;;16.15;46.65
4745;BME280;2386;42.138;24.746;2023-04-29T08:52:42;99655.31;;;16.17;46.52
4745;BME280;2386;42.138;24.746;2023-04-29T08:55:07;99658.13;;;16.32;47.16
4745;BME280;2386;42.138;24.746;2023-04-29T08:57:36;99657.06;;;16.49;46.87
4745;BME280;2386;42.138;24.746;2023-04-29T09:00:05;99657.38;;;16.62;47.02
4745;BME280;2386;42.138;24.746;2023-04-29T09:02:32;99663.22;;;16.76;46.30
4745;BME280;2386;42.138;24.746;2023-04-29T09:05:07;99663.22;;;16.86;45.52
4745;BME280;2386;42.138;24.746;2023-04-29T09:07:34;99659.13;;;16.89;44.88
4745;BME280;2386;42.138;24.746;2023-04-29T09:10:00;99649.78;;;16.74;44.52
4745;BME280;2386;42.138;24.746;2023-04-29T09:12:28;99652.81;;;16.78;44.23
4745;BME280;2386;42.138;24.746;2023-04-29T09:14:55;99647.34;;;16.93;44.01
4745;BME280;2386;42.138;24.746;2023-04-29T09:17:38;99645.69;;;17.13;43.20
4745;BME280;2386;42.138;24.746;2023-04-29T09:22:54;99632.56;;;17.20;43.45
4745;BME280;2386;42.138;24.746;2023-04-29T09:25:20;99627.63;;;17.12;43.13
4745;BME280;2386;42.138;24.746;2023-04-29T09:27:45;99623.75;;;16.72;42.47
4745;BME280;2386;42.138;24.746;2023-04-29T09:30:11;99623.25;;;16.95;41.97
4745;BME280;2386;42.138;24.746;2023-04-29T09:32:38;99619.94;;;17.08;43.07
4745;BME280;2386;42.138;24.746;2023-04-29T09:35:26;99616.09;;;17.25;42.50
4745;BME280;2386;42.138;24.746;2023-04-29T09:37:53;99598.56;;;17.21;41.69
4745;BME280;2386;42.138;24.746;2023-04-29T09:40:39;99597.72;;;17.40;41.52
4745;BME280;2386;42.138;24.746;2023-04-29T09:43:14;99594.16;;;17.45;40.67
4745;BME280;2386;42.138;24.746;2023-04-29T09:45:44;99588.66;;;17.55;40.62
4745;BME280;2386;42.138;24.746;2023-04-29T09:48:10;99596.63;;;17.67;41.75
4745;BME280;2386;42.138;24.746;2023-04-29T09:50:37;99593.03;;;17.71;41.04
4745;BME280;2386;42.138;24.746;2023-04-29T09:53:07;99583.16;;;17.70;41.83
4745;BME280;2386;42.138;24.746;2023-04-29T09:55:57;99583.69;;;17.78;41.66
4745;BME280;2386;42.138;24.746;2023-04-29T09:58:33;99576.47;;;17.92;41.84
4745;BME280;2386;42.138;24.746;2023-04-29T10:01:02;99564.13;;;17.94;39.71
4745;BME280;2386;42.138;24.746;2023-04-29T10:03:31;99567.13;;;17.98;39.42
4745;BME280;2386;42.138;24.746;2023-04-29T10:05:57;99559.97;;;18.02;39.13
4745;BME280;2386;42.138;24.746;2023-04-29T10:08:26;99556.63;;;18.15;38.98
4745;BME280;2386;42.138;24.746;2023-04-29T10:10:51;99558.50;;;18.25;39.95
4745;BME280;2386;42.138;24.746;2023-04-29T10:13:23;99549.97;;;18.26;37.53
4745;BME280;2386;42.138;24.746;2023-04-29T10:16:00;99554.59;;;18.36;37.13
4745;BME280;2386;42.138;24.746;2023-04-29T10:18:35;99555.41;;;18.36;35.97
4745;BME280;2386;42.138;24.746;2023-04-29T10:21:06;99548.78;;;18.43;35.14
4745;BME280;2386;42.138;24.746;2023-04-29T10:23:32;99550.13;;;18.50;35.68
4745;BME280;2386;42.138;24.746;2023-04-29T10:25:59;99525.59;;;18.59;35.57
4745;BME280;2386;42.138;24.746;2023-04-29T10:28:26;99537.03;;;18.76;35.99
4745;BME280;2386;42.138;24.746;2023-04-29T10:30:53;99535.09;;;18.77;35.10
4745;BME280;2386;42.138;24.746;2023-04-29T10:33:18;99537.53;;;18.83;35.03
4745;BME280;2386;42.138;24.746;2023-04-29T10:35:47;99544.00;;;18.97;34.68
4745;BME280;2386;42.138;24.746;2023-04-29T10:38:23;99537.88;;;19.06;35.17
4745;BME280;2386;42.138;24.746;2023-04-29T10:40:50;99531.72;;;19.19;34.80
4745;BME280;2386;42.138;24.746;2023-04-29T10:43:24;99533.75;;;19.32;33.64
4745;BME280;2386;42.138;24.746;2023-04-29T10:46:16;99529.84;;;19.38;34.27
4745;BME280;2386;42.138;24.746;2023-04-29T10:48:42;99522.13;;;19.40;34.84
4745;BME280;2386;42.138;24.746;2023-04-29T10:51:08;99518.72;;;19.53;34.11
4745;BME280;2386;42.138;24.746;2023-04-29T10:53:34;99522.13;;;19.69;32.75
4745;BME280;2386;42.138;24.746;2023-04-29T10:56:07;99513.44;;;19.81;32.57
4745;BME280;2386;42.138;24.746;2023-04-29T10:58:37;99508.13;;;19.89;32.96
4745;BME280;2386;42.138;24.746;2023-04-29T11:01:03;99505.47;;;20.03;33.80
4745;BME280;2386;42.138;24.746;2023-04-29T11:06:11;99494.69;;;20.44;33.04
4745;BME280;2386;42.138;24.746;2023-04-29T11:08:36;99493.78;;;20.67;32.96
4745;BME280;2386;42.138;24.746;2023-04-29T11:11:04;99487.97;;;20.83;32.01
4745;BME280;2386;42.138;24.746;2023-04-29T11:13:31;99481.47;;;20.92;31.54
4745;BME280;2386;42.138;24.746;2023-04-29T11:16:09;99488.53;;;20.98;30.93
4745;BME280;2386;42.138;24.746;2023-04-29T11:19:03;99473.63;;;20.99;30.98
4745;BME280;2386;42.138;24.746;2023-04-29T11:21:22;99467.50;;;21.03;31.62
4745;BME280;2386;42.138;24.746;2023-04-29T11:23:50;99476.19;;;21.10;31.22
4745;BME280;2386;42.138;24.746;2023-04-29T11:26:18;99461.81;;;21.13;30.96
4745;BME280;2386;42.138;24.746;2023-04-29T11:28:44;99454.03;;;21.15;31.76
4745;BME280;2386;42.138;24.746;2023-04-29T11:31:10;99461.34;;;21.24;31.19
4745;BME280;2386;42.138;24.746;2023-04-29T11:33:35;99450.50;;;21.28;30.97
4745;BME280;2386;42.138;24.746;2023-04-29T11:36:02;99455.84;;;21.52;31.21
4745;BME280;2386;42.138;24.746;2023-04-29T11:38:28;99447.22;;;21.67;31.95
4745;BME280;2386;42.138;24.746;2023-04-29T11:40:55;99448.09;;;21.90;30.58
4745;BME280;2386;42.138;24.746;2023-04-29T11:43:22;99436.88;;;21.73;28.96
4745;BME280;2386;42.138;24.746;2023-04-29T11:45:48;99436.75;;;22.05;29.91
4745;BME280;2386;42.138;24.746;2023-04-29T11:48:24;99448.19;;;22.35;29.97
4745;BME280;2386;42.138;24.746;2023-04-29T11:50:52;99435.78;;;22.23;28.98
4745;BME280;2386;42.138;24.746;2023-04-29T11:53:19;99439.03;;;22.25;29.33
4745;BME280;2386;42.138;24.746;2023-04-29T11:55:45;99413.78;;;22.41;28.15
4745;BME280;2386;42.138;24.746;2023-04-29T11:58:13;99422.25;;;22.67;28.16
4745;BME280;2386;42.138;24.746;2023-04-29T12:00:39;99408.13;;;22.46;27.67
4745;BME280;2386;42.138;24.746;2023-04-29T12:03:15;99422.59;;;22.20;27.79
4745;BME280;2386;42.138;24.746;2023-04-29T12:05:50;99411.69;;;22.91;28.23
4745;BME280;2386;42.138;24.746;2023-04-29T12:08:22;99415.09;;;23.27;27.11
4745;BME280;2386;42.138;24.746;2023-04-29T12:10:48;99393.56;;;23.55;26.96
4745;BME280;2386;42.138;24.746;2023-04-29T12:13:15;99398.16;;;24.03;25.85
4745;BME280;2386;42.138;24.746;2023-04-29T12:15:41;99378.81;;;24.29;25.36
4745;BME280;2386;42.138;24.746;2023-04-29T12:18:07;99379.53;;;24.64;25.65
4745;BME280;2386;42.138;24.746;2023-04-29T12:20:32;99386.59;;;25.17;25.05
4745;BME280;2386;42.138;24.746;2023-04-29T12:23:18;99395.56;;;25.14;24.29
4745;BME280;2386;42.138;24.746;2023-04-29T12:25:52;99385.19;;;24.85;24.64
4745;BME280;2386;42.138;24.746;2023-04-29T12:28:18;99385.44;;;24.54;24.57
4745;BME280;2386;42.138;24.746;2023-04-29T12:30:48;99382.09;;;24.86;27.59
4745;BME280;2386;42.138;24.746;2023-04-29T12:33:27;99377.84;;;24.98;25.93
4745;BME280;2386;42.138;24.746;2023-04-29T12:35:54;99370.50;;;24.84;27.23
4745;BME280;2386;42.138;24.746;2023-04-29T12:38:29;99364.75;;;25.07;28.47
4745;BME280;2386;42.138;24.746;2023-04-29T12:40:56;99373.44;;;25.64;26.56
4745;BME280;2386;42.138;24.746;2023-04-29T12:43:29;99375.97;;;25.78;24.93
4745;BME280;2386;42.138;24.746;2023-04-29T12:46:08;99368.94;;;26.13;25.57
4745;BME280;2386;42.138;24.746;2023-04-29T12:48:37;99358.50;;;26.76;25.50
4745;BME280;2386;42.138;24.746;2023-04-29T12:51:03;99367.72;;;27.87;23.94
4745;BME280;2386;42.138;24.746;2023-04-29T12:53:29;99356.88;;;29.28;22.67
4745;BME280;2386;42.138;24.746;2023-04-29T12:55:55;99347.97;;;30.28;22.04
4745;BME280;2386;42.138;24.746;2023-04-29T12:58:21;99346.63;;;30.83;20.53
4745;BME280;2386;42.138;24.746;2023-04-29T13:00:46;99358.47;;;30.96;20.22
4745;BME280;2386;42.138;24.746;2023-04-29T13:03:12;99349.75;;;31.01;19.98
4745;BME280;2386;42.138;24.746;2023-04-29T13:05:37;99357.81;;;30.60;21.56
4745;BME280;2386;42.138;24.746;2023-04-29T13:08:03;99353.66;;;29.10;21.24
4745;BME280;2386;42.138;24.746;2023-04-29T13:10:33;99346.78;;;28.76;22.42
4745;BME280;2386;42.138;24.746;2023-04-29T13:12:58;99341.34;;;28.52;21.67
4745;BME280;2386;42.138;24.746;2023-04-29T13:15:25;99341.06;;;28.57;22.42
4745;BME280;2386;42.138;24.746;2023-04-29T13:17:51;99329.53;;;28.87;23.41
4745;BME280;2386;42.138;24.746;2023-04-29T13:20:16;99335.22;;;28.19;21.73
4745;BME280;2386;42.138;24.746;2023-04-29T13:22:42;99334.44;;;27.66;22.23
4745;BME280;2386;42.138;24.746;2023-04-29T13:25:09;99335.03;;;27.10;23.75
4745;BME280;2386;42.138;24.746;2023-04-29T13:27:36;99322.22;;;26.61;24.02
4745;BME280;2386;42.138;24.746;2023-04-29T13:30:02;99320.31;;;25.86;24.76
4745;BME280;2386;42.138;24.746;2023-04-29T13:32:31;99313.41;;;25.42;25.65